Flying Cat 3 — SX6671 — position and weather

sailwx.info

Track history (hours):
 
Tides and Currents Weather Stations Pressure Air Temp Water Temp Dewpoint Dewpoint Depression Visibility Wind Speed Wind Dir Waves Ship Positions

Flying Cat 3

Last reported at 2016-Apr-22 11:30 UTC. Time now 2016-May-01 19:18 UTC.
Position N 37°57' E 023°33'.
Warning: this ship's position is 9 days out of date.

; draft 1.5 m.

Type: High speed craft. MMSI: 239552000.

Date/timePositionNaut miles runAvg speedWind from/ knotsBaromVisibWave heightAir tempDewpointWater temp
2016-Apr-22 11:30N 37°57' E 023°33'0 0.0
2016-Apr-21 10:03N 37°57' E 023°33'2 3.0
2016-Apr-21 09:32N 37°57' E 023°35'3 2.8
2016-Apr-21 08:32N 37°57' E 023°38'0 0.0
2016-Apr-21 07:32N 37°57' E 023°38'0 0.0
2016-Apr-21 06:29N 37°57' E 023°38'0 0.0
2016-Apr-20 12:32N 37°57' E 023°38'0 0.0
2016-Apr-20 11:32N 37°57' E 023°38'0 0.0
2016-Apr-20 10:32N 37°57' E 023°38'0 0.0
2016-Apr-20 09:32N 37°57' E 023°38'0 0.0
2016-Apr-20 08:32N 37°57' E 023°38'0 0.0
2016-Apr-20 07:20N 37°57' E 023°38'0 0.0
2016-Apr-20 06:32N 37°57' E 023°38'0 0.0
2016-Apr-19 13:04N 37°57' E 023°38'0 0.0
2016-Apr-19 12:31N 37°57' E 023°38'0 0.0
2016-Apr-19 11:31N 37°57' E 023°38'0 0.0
2016-Apr-19 10:31N 37°57' E 023°38'0 0.0
2016-Apr-19 09:31N 37°57' E 023°38'0 0.0
2016-Apr-19 08:31N 37°57' E 023°38'0 0.0
2016-Apr-19 07:31N 37°57' E 023°38'0 0.0
2016-Apr-19 06:31N 37°57' E 023°38'0 0.0
2016-Apr-19 05:31N 37°57' E 023°38'  
2016-Apr-15 13:13N 37°57' E 023°38'0 0.0
2016-Apr-15 12:31N 37°57' E 023°38'0 0.0
2016-Apr-15 11:31N 37°57' E 023°38'3 3.6
2016-Apr-15 10:33N 37°54' E 023°37'3 3.2
2016-Apr-15 09:28N 37°57' E 023°38'0 0.0
2016-Apr-15 08:31N 37°57' E 023°38'0 0.0
2016-Apr-15 07:31N 37°57' E 023°38'0 0.0
2016-Apr-15 06:31N 37°57' E 023°38'0 0.0
2016-Apr-15 05:31N 37°57' E 023°38'0 0.0
2016-Apr-14 15:32N 37°57' E 023°38'0 0.0
2016-Apr-14 14:32N 37°57' E 023°38'0 0.0
2016-Apr-14 13:31N 37°57' E 023°38'0 0.0
2016-Apr-14 12:31N 37°57' E 023°38'0 0.0
2016-Apr-14 11:28N 37°57' E 023°38'0 0.0
2016-Apr-14 10:28N 37°57' E 023°38'0 0.0
2016-Apr-14 09:31N 37°57' E 023°38'0 0.0
2016-Apr-14 08:28N 37°57' E 023°38'0 0.0
2016-Apr-14 07:31N 37°57' E 023°38'0 0.0
2016-Apr-14 06:28N 37°57' E 023°38'0 0.0
2016-Apr-13 13:32N 37°57' E 023°38'0 0.0
2016-Apr-13 12:32N 37°57' E 023°38'4 4.0
2016-Apr-13 11:29N 37°57' E 023°33'0 0.0
2016-Apr-13 10:32N 37°57' E 023°33'0 0.0
2016-Apr-12 12:23N 37°57' E 023°33'0 0.0
2016-Apr-12 11:32N 37°57' E 023°33'  
Track history (hours):
 
Tides and Currents Weather Stations Pressure Air Temp Water Temp Dewpoint Dewpoint Depression Visibility Wind Speed Wind Dir Waves Ship Positions

Flying Cat 3

Last reported at 2016-Apr-22 11:30 UTC. Time now 2016-May-01 19:18 UTC.
Position N 37°57' E 023°33'.
Warning: this ship's position is 9 days out of date.

; draft 1.5 m.

Type: High speed craft. MMSI: 239552000.

Date/timePositionNaut miles runAvg speedWind from/ knotsBaromVisibWave heightAir tempDewpointWater temp
2016-Apr-22 11:30N 37°57' E 023°33'0 0.0
2016-Apr-21 10:03N 37°57' E 023°33'2 3.0
2016-Apr-21 09:32N 37°57' E 023°35'3 2.8
2016-Apr-21 08:32N 37°57' E 023°38'0 0.0
2016-Apr-21 07:32N 37°57' E 023°38'0 0.0
2016-Apr-21 06:29N 37°57' E 023°38'0 0.0
2016-Apr-20 12:32N 37°57' E 023°38'0 0.0
2016-Apr-20 11:32N 37°57' E 023°38'0 0.0
2016-Apr-20 10:32N 37°57' E 023°38'0 0.0
2016-Apr-20 09:32N 37°57' E 023°38'0 0.0
2016-Apr-20 08:32N 37°57' E 023°38'0 0.0
2016-Apr-20 07:20N 37°57' E 023°38'0 0.0
2016-Apr-20 06:32N 37°57' E 023°38'0 0.0
2016-Apr-19 13:04N 37°57' E 023°38'0 0.0
2016-Apr-19 12:31N 37°57' E 023°38'0 0.0
2016-Apr-19 11:31N 37°57' E 023°38'0 0.0
2016-Apr-19 10:31N 37°57' E 023°38'0 0.0
2016-Apr-19 09:31N 37°57' E 023°38'0 0.0
2016-Apr-19 08:31N 37°57' E 023°38'0 0.0
2016-Apr-19 07:31N 37°57' E 023°38'0 0.0
2016-Apr-19 06:31N 37°57' E 023°38'0 0.0
2016-Apr-19 05:31N 37°57' E 023°38'  
2016-Apr-15 13:13N 37°57' E 023°38'0 0.0
2016-Apr-15 12:31N 37°57' E 023°38'0 0.0
2016-Apr-15 11:31N 37°57' E 023°38'3 3.6
2016-Apr-15 10:33N 37°54' E 023°37'3 3.2
2016-Apr-15 09:28N 37°57' E 023°38'0 0.0
2016-Apr-15 08:31N 37°57' E 023°38'0 0.0
2016-Apr-15 07:31N 37°57' E 023°38'0 0.0
2016-Apr-15 06:31N 37°57' E 023°38'0 0.0
2016-Apr-15 05:31N 37°57' E 023°38'0 0.0
2016-Apr-14 15:32N 37°57' E 023°38'0 0.0
2016-Apr-14 14:32N 37°57' E 023°38'0 0.0
2016-Apr-14 13:31N 37°57' E 023°38'0 0.0
2016-Apr-14 12:31N 37°57' E 023°38'0 0.0
2016-Apr-14 11:28N 37°57' E 023°38'0 0.0
2016-Apr-14 10:28N 37°57' E 023°38'0 0.0
2016-Apr-14 09:31N 37°57' E 023°38'0 0.0
2016-Apr-14 08:28N 37°57' E 023°38'0 0.0
2016-Apr-14 07:31N 37°57' E 023°38'0 0.0
2016-Apr-14 06:28N 37°57' E 023°38'0 0.0
2016-Apr-13 13:32N 37°57' E 023°38'0 0.0
2016-Apr-13 12:32N 37°57' E 023°38'4 4.0
2016-Apr-13 11:29N 37°57' E 023°33'0 0.0
2016-Apr-13 10:32N 37°57' E 023°33'0 0.0
2016-Apr-12 12:23N 37°57' E 023°33'0 0.0
2016-Apr-12 11:32N 37°57' E 023°33'  

Dump ship's entire track history